sensor_id;sensor_type;location;lat;lon;timestamp;temperature;humidity
18948;DHT22;9607;51.600;7.558;2022-11-15T00:00:57;9.90;99.90
18948;DHT22;9607;51.600;7.558;2022-11-15T00:03:27;9.90;99.90
18948;DHT22;9607;51.600;7.558;2022-11-15T00:05:54;9.90;99.90
18948;DHT22;9607;51.600;7.558;2022-11-15T00:08:23;9.90;99.90
18948;DHT22;9607;51.600;7.558;2022-11-15T00:10:56;9.90;99.90
18948;DHT22;9607;51.600;7.558;2022-11-15T00:13:23;9.90;99.90
18948;DHT22;9607;51.600;7.558;2022-11-15T00:15:50;9.90;99.90
18948;DHT22;9607;51.600;7.558;2022-11-15T00:18:18;9.90;99.90
18948;DHT22;9607;51.600;7.558;2022-11-15T00:20:45;9.90;99.90
18948;DHT22;9607;51.600;7.558;2022-11-15T00:23:12;10.00;99.90
18948;DHT22;9607;51.600;7.558;2022-11-15T00:25:41;10.00;99.90
18948;DHT22;9607;51.600;7.558;2022-11-15T00:28:08;10.00;99.90
18948;DHT22;9607;51.600;7.558;2022-11-15T00:30:35;10.00;99.90
18948;DHT22;9607;51.600;7.558;2022-11-15T00:33:05;10.00;99.90
18948;DHT22;9607;51.600;7.558;2022-11-15T00:35:34;10.00;99.90
18948;DHT22;9607;51.600;7.558;2022-11-15T00:38:02;10.00;99.90
18948;DHT22;9607;51.600;7.558;2022-11-15T00:40:32;10.00;99.90
18948;DHT22;9607;51.600;7.558;2022-11-15T00:43:01;10.00;99.90
18948;DHT22;9607;51.600;7.558;2022-11-15T00:45:28;10.00;99.90
18948;DHT22;9607;51.600;7.558;2022-11-15T00:47:55;10.10;99.90
18948;DHT22;9607;51.600;7.558;2022-11-15T00:50:22;10.10;99.90
18948;DHT22;9607;51.600;7.558;2022-11-15T00:52:49;10.20;99.90
18948;DHT22;9607;51.600;7.558;2022-11-15T00:55:17;10.30;99.90
18948;DHT22;9607;51.600;7.558;2022-11-15T00:57:45;10.50;99.90
18948;DHT22;9607;51.600;7.558;2022-11-15T01:00:13;10.40;99.90
18948;DHT22;9607;51.600;7.558;2022-11-15T01:02:41;10.50;99.90
18948;DHT22;9607;51.600;7.558;2022-11-15T01:05:08;10.60;99.90
18948;DHT22;9607;51.600;7.558;2022-11-15T01:07:39;10.60;99.90
18948;DHT22;9607;51.600;7.558;2022-11-15T03:22:46;12.40;99.90
18948;DHT22;9607;51.600;7.558;2022-11-15T03:48:38;12.20;99.90
18948;DHT22;9607;51.600;7.558;2022-11-15T04:04:04;12.30;99.90
18948;DHT22;9607;51.600;7.558;2022-11-15T04:06:32;12.40;99.90
18948;DHT22;9607;51.600;7.558;2022-11-15T04:53:01;12.50;99.90
18948;DHT22;9607;51.600;7.558;2022-11-15T05:11:02;12.60;99.90
18948;DHT22;9607;51.600;7.558;2022-11-15T05:13:29;12.70;99.90
18948;DHT22;9607;51.600;7.558;2022-11-15T05:15:56;12.60;99.90
18948;DHT22;9607;51.600;7.558;2022-11-15T05:18:23;12.70;99.90
18948;DHT22;9607;51.600;7.558;2022-11-15T05:20:50;12.70;99.90
18948;DHT22;9607;51.600;7.558;2022-11-15T05:23:17;12.70;99.90
18948;DHT22;9607;51.600;7.558;2022-11-15T05:25:44;12.70;99.90
18948;DHT22;9607;51.600;7.558;2022-11-15T05:28:13;12.70;99.90
18948;DHT22;9607;51.600;7.558;2022-11-15T05:30:40;12.70;99.90
18948;DHT22;9607;51.600;7.558;2022-11-15T05:33:07;12.80;99.90
18948;DHT22;9607;51.600;7.558;2022-11-15T05:35:38;12.80;99.90
18948;DHT22;9607;51.600;7.558;2022-11-15T05:38:06;12.80;99.90
18948;DHT22;9607;51.600;7.558;2022-11-15T05:40:34;12.90;99.90
18948;DHT22;9607;51.600;7.558;2022-11-15T05:43:03;12.70;99.90
18948;DHT22;9607;51.600;7.558;2022-11-15T05:45:33;12.70;99.90
18948;DHT22;9607;51.600;7.558;2022-11-15T05:48:06;12.70;99.90
18948;DHT22;9607;51.600;7.558;2022-11-15T05:50:39;12.60;99.90
18948;DHT22;9607;51.600;7.558;2022-11-15T05:53:08;12.50;99.90
18948;DHT22;9607;51.600;7.558;2022-11-15T05:55:37;12.60;99.90
18948;DHT22;9607;51.600;7.558;2022-11-15T05:58:08;12.60;99.90
18948;DHT22;9607;51.600;7.558;2022-11-15T06:00:39;12.60;99.90
18948;DHT22;9607;51.600;7.558;2022-11-15T06:03:08;12.60;99.90
18948;DHT22;9607;51.600;7.558;2022-11-15T06:05:36;12.60;99.90
18948;DHT22;9607;51.600;7.558;2022-11-15T06:08:03;12.70;99.90
18948;DHT22;9607;51.600;7.558;2022-11-15T06:10:30;12.70;99.90
18948;DHT22;9607;51.600;7.558;2022-11-15T06:12:58;12.70;99.90
18948;DHT22;9607;51.600;7.558;2022-11-15T06:15:28;12.80;99.90
18948;DHT22;9607;51.600;7.558;2022-11-15T06:17:57;12.80;99.90
18948;DHT22;9607;51.600;7.558;2022-11-15T06:20:24;12.80;99.90
18948;DHT22;9607;51.600;7.558;2022-11-15T06:22:56;12.80;99.90
18948;DHT22;9607;51.600;7.558;2022-11-15T06:25:23;12.80;99.90
18948;DHT22;9607;51.600;7.558;2022-11-15T06:27:51;12.80;99.90
18948;DHT22;9607;51.600;7.558;2022-11-15T06:30:18;12.80;99.90
18948;DHT22;9607;51.600;7.558;2022-11-15T06:32:45;12.80;99.90
18948;DHT22;9607;51.600;7.558;2022-11-15T06:37:50;12.80;99.90
18948;DHT22;9607;51.600;7.558;2022-11-15T06:40:17;12.80;99.90
18948;DHT22;9607;51.600;7.558;2022-11-15T06:42:44;12.80;99.90
18948;DHT22;9607;51.600;7.558;2022-11-15T06:45:11;12.90;99.90
18948;DHT22;9607;51.600;7.558;2022-11-15T06:47:46;12.90;99.90
18948;DHT22;9607;51.600;7.558;2022-11-15T06:50:13;12.90;99.90
18948;DHT22;9607;51.600;7.558;2022-11-15T06:52:40;12.90;99.90
18948;DHT22;9607;51.600;7.558;2022-11-15T06:55:09;13.00;99.90
18948;DHT22;9607;51.600;7.558;2022-11-15T06:57:42;12.90;99.90
18948;DHT22;9607;51.600;7.558;2022-11-15T07:00:13;13.00;99.90
18948;DHT22;9607;51.600;7.558;2022-11-15T07:02:40;13.00;99.90
18948;DHT22;9607;51.600;7.558;2022-11-15T07:05:08;13.00;99.90
18948;DHT22;9607;51.600;7.558;2022-11-15T07:07:35;13.00;99.90
18948;DHT22;9607;51.600;7.558;2022-11-15T07:10:02;12.90;99.90
18948;DHT22;9607;51.600;7.558;2022-11-15T07:12:31;12.90;99.90
18948;DHT22;9607;51.600;7.558;2022-11-15T07:14:58;12.80;99.90
18948;DHT22;9607;51.600;7.558;2022-11-15T07:17:25;12.80;99.90
18948;DHT22;9607;51.600;7.558;2022-11-15T07:19:52;12.80;99.90
18948;DHT22;9607;51.600;7.558;2022-11-15T07:22:20;12.70;99.90
18948;DHT22;9607;51.600;7.558;2022-11-15T07:24:47;12.80;99.90
18948;DHT22;9607;51.600;7.558;2022-11-15T07:27:14;12.80;99.90
18948;DHT22;9607;51.600;7.558;2022-11-15T07:29:43;12.80;99.90
18948;DHT22;9607;51.600;7.558;2022-11-15T07:32:10;12.90;99.90
18948;DHT22;9607;51.600;7.558;2022-11-15T07:34:38;12.80;99.90
18948;DHT22;9607;51.600;7.558;2022-11-15T07:39:41;13.00;99.90
18948;DHT22;9607;51.600;7.558;2022-11-15T07:42:09;13.10;99.90
18948;DHT22;9607;51.600;7.558;2022-11-15T07:44:55;13.10;99.90
18948;DHT22;9607;51.600;7.558;2022-11-15T07:47:22;13.10;99.90
18948;DHT22;9607;51.600;7.558;2022-11-15T07:49:52;13.20;99.90
18948;DHT22;9607;51.600;7.558;2022-11-15T07:52:19;13.20;99.90
18948;DHT22;9607;51.600;7.558;2022-11-15T07:54:46;13.10;99.90
18948;DHT22;9607;51.600;7.558;2022-11-15T07:57:13;13.20;99.90
18948;DHT22;9607;51.600;7.558;2022-11-15T08:07:25;12.90;99.90
18948;DHT22;9607;51.600;7.558;2022-11-15T08:09:54;12.80;99.90
18948;DHT22;9607;51.600;7.558;2022-11-15T08:12:22;12.90;99.90
18948;DHT22;9607;51.600;7.558;2022-11-15T08:14:51;12.80;99.90
18948;DHT22;9607;51.600;7.558;2022-11-15T08:19:53;12.80;99.90
18948;DHT22;9607;51.600;7.558;2022-11-15T08:22:21;12.90;99.90
18948;DHT22;9607;51.600;7.558;2022-11-15T08:24:49;12.90;99.90
18948;DHT22;9607;51.600;7.558;2022-11-15T08:27:16;12.80;99.90
18948;DHT22;9607;51.600;7.558;2022-11-15T08:29:44;12.80;99.90
18948;DHT22;9607;51.600;7.558;2022-11-15T08:32:11;12.80;99.90
18948;DHT22;9607;51.600;7.558;2022-11-15T08:34:41;12.90;99.90
18948;DHT22;9607;51.600;7.558;2022-11-15T08:37:08;12.90;99.90
18948;DHT22;9607;51.600;7.558;2022-11-15T08:39:35;12.90;99.90
18948;DHT22;9607;51.600;7.558;2022-11-15T08:42:04;13.00;99.90
18948;DHT22;9607;51.600;7.558;2022-11-15T08:44:31;13.00;99.90
18948;DHT22;9607;51.600;7.558;2022-11-15T08:46:59;13.00;99.90
18948;DHT22;9607;51.600;7.558;2022-11-15T08:49:28;13.10;99.90
18948;DHT22;9607;51.600;7.558;2022-11-15T08:51:55;13.10;99.90
18948;DHT22;9607;51.600;7.558;2022-11-15T08:54:22;13.30;99.90
18948;DHT22;9607;51.600;7.558;2022-11-15T08:56:49;13.30;99.90
18948;DHT22;9607;51.600;7.558;2022-11-15T08:59:18;13.40;99.90
18948;DHT22;9607;51.600;7.558;2022-11-15T09:01:45;13.40;99.90
18948;DHT22;9607;51.600;7.558;2022-11-15T09:04:12;13.50;99.90
18948;DHT22;9607;51.600;7.558;2022-11-15T09:06:39;13.50;99.90
18948;DHT22;9607;51.600;7.558;2022-11-15T09:09:06;13.60;99.90
18948;DHT22;9607;51.600;7.558;2022-11-15T09:11:33;13.70;99.90
18948;DHT22;9607;51.600;7.558;2022-11-15T09:14:01;13.70;99.90
18948;DHT22;9607;51.600;7.558;2022-11-15T09:16:55;13.70;99.90
18948;DHT22;9607;51.600;7.558;2022-11-15T09:19:23;13.80;99.90
18948;DHT22;9607;51.600;7.558;2022-11-15T09:21:50;13.80;99.90
18948;DHT22;9607;51.600;7.558;2022-11-15T09:24:17;13.90;99.90
18948;DHT22;9607;51.600;7.558;2022-11-15T09:26:44;13.90;99.90
18948;DHT22;9607;51.600;7.558;2022-11-15T09:36:59;14.00;99.90
18948;DHT22;9607;51.600;7.558;2022-11-15T09:39:29;14.00;99.90
18948;DHT22;9607;51.600;7.558;2022-11-15T09:42:16;14.00;99.90
18948;DHT22;9607;51.600;7.558;2022-11-15T09:47:35;14.00;99.90
18948;DHT22;9607;51.600;7.558;2022-11-15T09:52:43;14.00;99.90
18948;DHT22;9607;51.600;7.558;2022-11-15T10:00:25;14.00;99.90
18948;DHT22;9607;51.600;7.558;2022-11-15T10:03:08;14.10;99.90
18948;DHT22;9607;51.600;7.558;2022-11-15T10:05:39;14.20;99.90
18948;DHT22;9607;51.600;7.558;2022-11-15T10:10:45;14.20;99.90
18948;DHT22;9607;51.600;7.558;2022-11-15T10:13:19;14.10;99.90
18948;DHT22;9607;51.600;7.558;2022-11-15T10:15:47;14.20;99.90
18948;DHT22;9607;51.600;7.558;2022-11-15T10:18:17;14.30;99.90
18948;DHT22;9607;51.600;7.558;2022-11-15T10:20:50;14.30;99.90
18948;DHT22;9607;51.600;7.558;2022-11-15T10:23:20;14.20;99.90
18948;DHT22;9607;51.600;7.558;2022-11-15T10:25:51;14.30;99.90
18948;DHT22;9607;51.600;7.558;2022-11-15T10:28:26;14.30;99.90
18948;DHT22;9607;51.600;7.558;2022-11-15T10:30:55;14.40;99.90
18948;DHT22;9607;51.600;7.558;2022-11-15T10:33:27;14.40;99.90
18948;DHT22;9607;51.600;7.558;2022-11-15T10:36:21;14.40;99.90
18948;DHT22;9607;51.600;7.558;2022-11-15T10:39:03;14.40;99.90
18948;DHT22;9607;51.600;7.558;2022-11-15T10:41:36;14.40;99.90
18948;DHT22;9607;51.600;7.558;2022-11-15T10:44:17;14.50;99.90
18948;DHT22;9607;51.600;7.558;2022-11-15T10:46:46;14.50;99.90
18948;DHT22;9607;51.600;7.558;2022-11-15T10:49:17;14.50;99.90
18948;DHT22;9607;51.600;7.558;2022-11-15T10:51:47;14.50;99.90
18948;DHT22;9607;51.600;7.558;2022-11-15T10:54:22;14.50;99.90
18948;DHT22;9607;51.600;7.558;2022-11-15T10:56:58;14.60;99.90
18948;DHT22;9607;51.600;7.558;2022-11-15T10:59:28;14.60;99.90
18948;DHT22;9607;51.600;7.558;2022-11-15T11:01:56;14.60;99.90
18948;DHT22;9607;51.600;7.558;2022-11-15T11:04:23;14.60;99.90
18948;DHT22;9607;51.600;7.558;2022-11-15T11:06:52;14.70;99.90
18948;DHT22;9607;51.600;7.558;2022-11-15T11:09:28;14.70;99.90
18948;DHT22;9607;51.600;7.558;2022-11-15T11:11:59;14.60;99.90
18948;DHT22;9607;51.600;7.558;2022-11-15T11:14:28;14.50;99.90
18948;DHT22;9607;51.600;7.558;2022-11-15T11:17:02;14.60;99.90
18948;DHT22;9607;51.600;7.558;2022-11-15T11:19:46;14.60;99.90
18948;DHT22;9607;51.600;7.558;2022-11-15T11:22:23;14.60;99.90
18948;DHT22;9607;51.600;7.558;2022-11-15T11:25:02;14.60;99.90
18948;DHT22;9607;51.600;7.558;2022-11-15T11:27:40;14.60;99.90
18948;DHT22;9607;51.600;7.558;2022-11-15T11:30:14;14.60;99.90
18948;DHT22;9607;51.600;7.558;2022-11-15T11:33:07;14.60;99.90
18948;DHT22;9607;51.600;7.558;2022-11-15T11:35:43;14.60;99.90
18948;DHT22;9607;51.600;7.558;2022-11-15T11:38:23;14.70;99.90
18948;DHT22;9607;51.600;7.558;2022-11-15T11:41:02;14.70;99.90
18948;DHT22;9607;51.600;7.558;2022-11-15T11:43:36;14.60;99.90
18948;DHT22;9607;51.600;7.558;2022-11-15T11:46:29;14.80;99.90
18948;DHT22;9607;51.600;7.558;2022-11-15T11:49:04;14.80;99.90
18948;DHT22;9607;51.600;7.558;2022-11-15T11:51:38;14.80;99.90
18948;DHT22;9607;51.600;7.558;2022-11-15T11:54:15;15.10;99.90
18948;DHT22;9607;51.600;7.558;2022-11-15T11:56:45;15.20;99.90
18948;DHT22;9607;51.600;7.558;2022-11-15T11:59:25;15.30;99.90
18948;DHT22;9607;51.600;7.558;2022-11-15T12:01:55;15.60;99.90
18948;DHT22;9607;51.600;7.558;2022-11-15T12:04:27;15.90;99.90
18948;DHT22;9607;51.600;7.558;2022-11-15T12:07:04;16.20;99.90
18948;DHT22;9607;51.600;7.558;2022-11-15T12:09:39;16.40;99.90
18948;DHT22;9607;51.600;7.558;2022-11-15T12:12:17;16.50;99.00
18948;DHT22;9607;51.600;7.558;2022-11-15T12:14:57;16.40;96.90
18948;DHT22;9607;51.600;7.558;2022-11-15T12:17:27;16.20;94.70
18948;DHT22;9607;51.600;7.558;2022-11-15T12:20:01;16.10;93.80
18948;DHT22;9607;51.600;7.558;2022-11-15T12:22:40;16.00;93.60
18948;DHT22;9607;51.600;7.558;2022-11-15T12:25:16;15.90;93.90
18948;DHT22;9607;51.600;7.558;2022-11-15T12:27:48;15.90;94.10
18948;DHT22;9607;51.600;7.558;2022-11-15T12:30:19;15.80;94.40
18948;DHT22;9607;51.600;7.558;2022-11-15T12:32:53;15.70;94.30
18948;DHT22;9607;51.600;7.558;2022-11-15T12:35:26;15.60;94.20
18948;DHT22;9607;51.600;7.558;2022-11-15T12:37:54;15.60;93.50
18948;DHT22;9607;51.600;7.558;2022-11-15T12:40:33;15.40;92.70
18948;DHT22;9607;51.600;7.558;2022-11-15T12:46:02;15.40;92.80
18948;DHT22;9607;51.600;7.558;2022-11-15T12:48:48;15.40;92.60
18948;DHT22;9607;51.600;7.558;2022-11-15T12:51:21;15.30;93.00
18948;DHT22;9607;51.600;7.558;2022-11-15T12:53:48;15.30;93.10
18948;DHT22;9607;51.600;7.558;2022-11-15T12:56:22;15.30;92.90
18948;DHT22;9607;51.600;7.558;2022-11-15T12:58:52;15.30;92.50
18948;DHT22;9607;51.600;7.558;2022-11-15T13:01:58;15.20;91.10
18948;DHT22;9607;51.600;7.558;2022-11-15T13:04:28;15.20;90.20
18948;DHT22;9607;51.600;7.558;2022-11-15T13:07:00;15.20;90.40
18948;DHT22;9607;51.600;7.558;2022-11-15T13:09:51;15.20;90.80
18948;DHT22;9607;51.600;7.558;2022-11-15T13:12:48;15.20;91.10
18948;DHT22;9607;51.600;7.558;2022-11-15T13:15:37;15.10;91.10
18948;DHT22;9607;51.600;7.558;2022-11-15T13:18:28;15.10;91.80
18948;DHT22;9607;51.600;7.558;2022-11-15T13:20:55;15.10;92.10
18948;DHT22;9607;51.600;7.558;2022-11-15T13:23:22;15.10;92.60
18948;DHT22;9607;51.600;7.558;2022-11-15T13:26:12;15.10;93.10
18948;DHT22;9607;51.600;7.558;2022-11-15T13:28:43;15.10;92.90
18948;DHT22;9607;51.600;7.558;2022-11-15T13:31:34;15.10;92.90
18948;DHT22;9607;51.600;7.558;2022-11-15T13:36:58;15.20;93.90
18948;DHT22;9607;51.600;7.558;2022-11-15T13:39:28;15.20;94.20
18948;DHT22;9607;51.600;7.558;2022-11-15T13:41:56;15.10;94.60
18948;DHT22;9607;51.600;7.558;2022-11-15T13:44:25;15.20;95.00
18948;DHT22;9607;51.600;7.558;2022-11-15T13:47:05;15.20;95.30
18948;DHT22;9607;51.600;7.558;2022-11-15T13:49:34;15.20;95.50
18948;DHT22;9607;51.600;7.558;2022-11-15T13:52:05;15.10;95.70
18948;DHT22;9607;51.600;7.558;2022-11-15T13:54:35;15.10;95.80
18948;DHT22;9607;51.600;7.558;2022-11-15T13:57:05;15.10;96.10
18948;DHT22;9607;51.600;7.558;2022-11-15T13:59:43;15.10;96.40
18948;DHT22;9607;51.600;7.558;2022-11-15T14:02:12;15.10;96.90
18948;DHT22;9607;51.600;7.558;2022-11-15T14:04:49;15.10;97.00
18948;DHT22;9607;51.600;7.558;2022-11-15T14:07:18;15.20;97.10
18948;DHT22;9607;51.600;7.558;2022-11-15T14:09:47;15.20;96.80
18948;DHT22;9607;51.600;7.558;2022-11-15T14:12:23;15.20;96.90
18948;DHT22;9607;51.600;7.558;2022-11-15T14:14:52;15.30;97.00
18948;DHT22;9607;51.600;7.558;2022-11-15T14:17:21;15.20;97.10
18948;DHT22;9607;51.600;7.558;2022-11-15T14:19:51;15.20;97.30
18948;DHT22;9607;51.600;7.558;2022-11-15T14:22:20;15.20;97.60
18948;DHT22;9607;51.600;7.558;2022-11-15T14:25:05;15.10;97.70
18948;DHT22;9607;51.600;7.558;2022-11-15T14:27:33;15.10;98.00
18948;DHT22;9607;51.600;7.558;2022-11-15T14:30:00;15.10;98.20
18948;DHT22;9607;51.600;7.558;2022-11-15T14:32:29;15.00;98.50
18948;DHT22;9607;51.600;7.558;2022-11-15T14:34:59;15.00;98.70
18948;DHT22;9607;51.600;7.558;2022-11-15T14:37:28;15.00;98.90
18948;DHT22;9607;51.600;7.558;2022-11-15T14:39:56;14.90;99.10
18948;DHT22;9607;51.600;7.558;2022-11-15T14:42:24;15.00;99.40
18948;DHT22;9607;51.600;7.558;2022-11-15T14:44:51;15.00;99.80
18948;DHT22;9607;51.600;7.558;2022-11-15T14:47:18;15.00;99.90
18948;DHT22;9607;51.600;7.558;2022-11-15T14:49:46;15.00;99.90
18948;DHT22;9607;51.600;7.558;2022-11-15T14:52:25;15.00;99.90
18948;DHT22;9607;51.600;7.558;2022-11-15T14:54:53;15.10;99.90
18948;DHT22;9607;51.600;7.558;2022-11-15T14:57:20;15.10;99.90
18948;DHT22;9607;51.600;7.558;2022-11-15T14:59:50;15.00;99.90
18948;DHT22;9607;51.600;7.558;2022-11-15T15:02:19;15.00;99.90
18948;DHT22;9607;51.600;7.558;2022-11-15T15:04:47;14.90;99.90
18948;DHT22;9607;51.600;7.558;2022-11-15T15:09:51;14.80;99.90
18948;DHT22;9607;51.600;7.558;2022-11-15T15:12:20;14.80;99.90
18948;DHT22;9607;51.600;7.558;2022-11-15T15:14:49;14.70;99.90
18948;DHT22;9607;51.600;7.558;2022-11-15T15:17:17;14.70;99.90
18948;DHT22;9607;51.600;7.558;2022-11-15T15:19:46;14.70;99.90
18948;DHT22;9607;51.600;7.558;2022-11-15T15:22:15;14.60;99.90
18948;DHT22;9607;51.600;7.558;2022-11-15T15:24:42;14.40;99.90
18948;DHT22;9607;51.600;7.558;2022-11-15T15:27:11;14.40;99.90
18948;DHT22;9607;51.600;7.558;2022-11-15T15:29:38;14.30;99.90
18948;DHT22;9607;51.600;7.558;2022-11-15T15:32:06;14.10;99.90
18948;DHT22;9607;51.600;7.558;2022-11-15T15:34:33;14.10;99.90
18948;DHT22;9607;51.600;7.558;2022-11-15T15:37:26;13.90;99.90
18948;DHT22;9607;51.600;7.558;2022-11-15T15:39:54;13.90;99.90
18948;DHT22;9607;51.600;7.558;2022-11-15T15:42:23;13.70;99.90
18948;DHT22;9607;51.600;7.558;2022-11-15T15:44:51;13.60;99.90
18948;DHT22;9607;51.600;7.558;2022-11-15T15:47:19;13.60;99.90
18948;DHT22;9607;51.600;7.558;2022-11-15T15:49:47;13.50;99.90
18948;DHT22;9607;51.600;7.558;2022-11-15T15:52:15;13.40;99.90
18948;DHT22;9607;51.600;7.558;2022-11-15T15:54:49;13.40;99.90
18948;DHT22;9607;51.600;7.558;2022-11-15T15:57:16;13.40;99.90
18948;DHT22;9607;51.600;7.558;2022-11-15T15:59:45;13.40;99.90
18948;DHT22;9607;51.600;7.558;2022-11-15T16:02:13;13.40;99.90
18948;DHT22;9607;51.600;7.558;2022-11-15T16:04:40;13.30;99.90
18948;DHT22;9607;51.600;7.558;2022-11-15T16:07:16;13.30;99.90
18948;DHT22;9607;51.600;7.558;2022-11-15T16:09:46;13.30;99.90
18948;DHT22;9607;51.600;7.558;2022-11-15T16:12:29;13.30;99.90
18948;DHT22;9607;51.600;7.558;2022-11-15T16:14:58;13.30;99.90
18948;DHT22;9607;51.600;7.558;2022-11-15T16:17:30;13.30;99.90
18948;DHT22;9607;51.600;7.558;2022-11-15T16:19:57;13.20;99.90
18948;DHT22;9607;51.600;7.558;2022-11-15T16:22:24;13.30;99.90
18948;DHT22;9607;51.600;7.558;2022-11-15T16:24:51;13.30;99.90
18948;DHT22;9607;51.600;7.558;2022-11-15T16:27:19;13.20;99.90
18948;DHT22;9607;51.600;7.558;2022-11-15T16:29:47;13.20;99.90
18948;DHT22;9607;51.600;7.558;2022-11-15T16:32:16;13.20;99.90
18948;DHT22;9607;51.600;7.558;2022-11-15T16:34:45;13.20;99.90
18948;DHT22;9607;51.600;7.558;2022-11-15T16:37:21;13.10;99.90
18948;DHT22;9607;51.600;7.558;2022-11-15T16:39:52;13.20;99.90
18948;DHT22;9607;51.600;7.558;2022-11-15T16:42:19;13.10;99.90
18948;DHT22;9607;51.600;7.558;2022-11-15T16:44:46;13.10;99.90
18948;DHT22;9607;51.600;7.558;2022-11-15T16:47:21;13.00;99.90
18948;DHT22;9607;51.600;7.558;2022-11-15T16:49:49;13.10;99.90
18948;DHT22;9607;51.600;7.558;2022-11-15T16:52:16;13.10;99.90
18948;DHT22;9607;51.600;7.558;2022-11-15T16:54:43;13.10;99.90
18948;DHT22;9607;51.600;7.558;2022-11-15T16:57:13;13.00;99.90
18948;DHT22;9607;51.600;7.558;2022-11-15T16:59:41;13.10;99.90
18948;DHT22;9607;51.600;7.558;2022-11-15T17:02:11;13.10;99.90
18948;DHT22;9607;51.600;7.558;2022-11-15T17:04:39;13.00;99.90
18948;DHT22;9607;51.600;7.558;2022-11-15T17:07:09;13.00;99.90
18948;DHT22;9607;51.600;7.558;2022-11-15T17:09:36;13.00;99.90
18948;DHT22;9607;51.600;7.558;2022-11-15T17:12:03;13.00;99.90
18948;DHT22;9607;51.600;7.558;2022-11-15T17:14:31;13.00;99.90
18948;DHT22;9607;51.600;7.558;2022-11-15T17:16:58;13.00;99.90
18948;DHT22;9607;51.600;7.558;2022-11-15T17:19:25;13.00;99.90
18948;DHT22;9607;51.600;7.558;2022-11-15T17:22:11;13.00;99.90
18948;DHT22;9607;51.600;7.558;2022-11-15T17:24:38;13.00;99.90
18948;DHT22;9607;51.600;7.558;2022-11-15T17:27:05;13.00;99.90
18948;DHT22;9607;51.600;7.558;2022-11-15T17:29:32;12.90;99.90
18948;DHT22;9607;51.600;7.558;2022-11-15T17:31:59;13.00;99.90
18948;DHT22;9607;51.600;7.558;2022-11-15T17:34:26;13.00;99.90
18948;DHT22;9607;51.600;7.558;2022-11-15T17:36:54;12.90;99.90
18948;DHT22;9607;51.600;7.558;2022-11-15T17:39:23;13.00;99.90
18948;DHT22;9607;51.600;7.558;2022-11-15T17:41:50;12.90;99.90
18948;DHT22;9607;51.600;7.558;2022-11-15T17:44:17;12.90;99.90
18948;DHT22;9607;51.600;7.558;2022-11-15T17:46:44;12.80;99.90
18948;DHT22;9607;51.600;7.558;2022-11-15T17:49:12;12.90;99.90
18948;DHT22;9607;51.600;7.558;2022-11-15T17:51:39;12.90;99.90
18948;DHT22;9607;51.600;7.558;2022-11-15T17:54:09;12.90;99.90
18948;DHT22;9607;51.600;7.558;2022-11-15T17:56:40;12.90;99.90
18948;DHT22;9607;51.600;7.558;2022-11-15T17:59:07;12.90;99.90
18948;DHT22;9607;51.600;7.558;2022-11-15T18:01:35;12.90;99.90
18948;DHT22;9607;51.600;7.558;2022-11-15T18:04:06;12.90;99.90
18948;DHT22;9607;51.600;7.558;2022-11-15T18:06:38;12.90;99.90
18948;DHT22;9607;51.600;7.558;2022-11-15T18:09:09;12.90;99.90
18948;DHT22;9607;51.600;7.558;2022-11-15T18:12:01;12.90;99.90
18948;DHT22;9607;51.600;7.558;2022-11-15T18:14:28;12.90;99.90
18948;DHT22;9607;51.600;7.558;2022-11-15T18:16:55;12.70;99.90
18948;DHT22;9607;51.600;7.558;2022-11-15T18:19:21;12.90;99.90
18948;DHT22;9607;51.600;7.558;2022-11-15T18:21:48;12.90;99.90
18948;DHT22;9607;51.600;7.558;2022-11-15T18:24:26;12.90;99.90
18948;DHT22;9607;51.600;7.558;2022-11-15T18:26:54;12.90;99.90
18948;DHT22;9607;51.600;7.558;2022-11-15T18:29:22;12.90;99.90
18948;DHT22;9607;51.600;7.558;2022-11-15T18:31:50;12.90;99.90
18948;DHT22;9607;51.600;7.558;2022-11-15T18:34:22;12.90;99.90
18948;DHT22;9607;51.600;7.558;2022-11-15T18:36:50;12.90;99.90
18948;DHT22;9607;51.600;7.558;2022-11-15T18:39:24;12.90;99.90
18948;DHT22;9607;51.600;7.558;2022-11-15T18:41:51;12.90;99.90
18948;DHT22;9607;51.600;7.558;2022-11-15T18:44:18;12.90;99.90
18948;DHT22;9607;51.600;7.558;2022-11-15T18:46:46;12.80;99.90
18948;DHT22;9607;51.600;7.558;2022-11-15T18:49:14;12.90;99.90
18948;DHT22;9607;51.600;7.558;2022-11-15T18:51:41;12.80;99.90
18948;DHT22;9607;51.600;7.558;2022-11-15T18:54:10;12.90;99.90
18948;DHT22;9607;51.600;7.558;2022-11-15T18:56:37;12.90;99.90
18948;DHT22;9607;51.600;7.558;2022-11-15T18:59:05;12.90;99.90
18948;DHT22;9607;51.600;7.558;2022-11-15T19:01:35;12.90;99.90
18948;DHT22;9607;51.600;7.558;2022-11-15T19:04:05;12.90;99.90
18948;DHT22;9607;51.600;7.558;2022-11-15T19:06:36;12.90;99.90
18948;DHT22;9607;51.600;7.558;2022-11-15T19:09:03;12.90;99.90
18948;DHT22;9607;51.600;7.558;2022-11-15T19:11:31;13.00;99.90
18948;DHT22;9607;51.600;7.558;2022-11-15T19:14:01;13.00;99.90
18948;DHT22;9607;51.600;7.558;2022-11-15T19:16:29;13.10;99.90
18948;DHT22;9607;51.600;7.558;2022-11-15T19:18:59;13.20;99.90
18948;DHT22;9607;51.600;7.558;2022-11-15T19:21:28;13.20;99.90
18948;DHT22;9607;51.600;7.558;2022-11-15T19:23:56;13.30;99.90
18948;DHT22;9607;51.600;7.558;2022-11-15T19:26:24;13.30;99.90
18948;DHT22;9607;51.600;7.558;2022-11-15T19:28:52;13.30;99.90
18948;DHT22;9607;51.600;7.558;2022-11-15T19:31:20;13.40;99.90
18948;DHT22;9607;51.600;7.558;2022-11-15T19:33:51;13.50;99.90
18948;DHT22;9607;51.600;7.558;2022-11-15T19:36:20;13.50;99.90
18948;DHT22;9607;51.600;7.558;2022-11-15T19:38:49;13.50;99.90
18948;DHT22;9607;51.600;7.558;2022-11-15T19:41:17;13.50;99.90
18948;DHT22;9607;51.600;7.558;2022-11-15T19:43:45;13.60;99.90
18948;DHT22;9607;51.600;7.558;2022-11-15T19:46:14;13.60;99.90
18948;DHT22;9607;51.600;7.558;2022-11-15T19:48:41;13.60;99.90
18948;DHT22;9607;51.600;7.558;2022-11-15T19:51:11;13.60;99.90
18948;DHT22;9607;51.600;7.558;2022-11-15T19:53:38;13.60;99.90
18948;DHT22;9607;51.600;7.558;2022-11-15T19:56:10;13.60;99.90
18948;DHT22;9607;51.600;7.558;2022-11-15T19:58:37;13.60;99.90
18948;DHT22;9607;51.600;7.558;2022-11-15T20:01:06;13.60;99.90
18948;DHT22;9607;51.600;7.558;2022-11-15T20:03:34;13.50;99.90
18948;DHT22;9607;51.600;7.558;2022-11-15T20:06:02;13.50;99.90
18948;DHT22;9607;51.600;7.558;2022-11-15T20:08:29;13.50;99.90
18948;DHT22;9607;51.600;7.558;2022-11-15T20:10:56;13.50;99.90
18948;DHT22;9607;51.600;7.558;2022-11-15T20:13:25;13.40;99.90
18948;DHT22;9607;51.600;7.558;2022-11-15T20:15:52;13.40;99.90
18948;DHT22;9607;51.600;7.558;2022-11-15T20:18:20;13.40;99.90
18948;DHT22;9607;51.600;7.558;2022-11-15T20:20:49;13.40;99.90
18948;DHT22;9607;51.600;7.558;2022-11-15T20:23:16;13.30;99.90
18948;DHT22;9607;51.600;7.558;2022-11-15T20:25:44;13.30;99.90
18948;DHT22;9607;51.600;7.558;2022-11-15T20:28:14;13.40;99.90
18948;DHT22;9607;51.600;7.558;2022-11-15T20:30:43;13.30;99.90
18948;DHT22;9607;51.600;7.558;2022-11-15T20:33:15;13.30;99.90
18948;DHT22;9607;51.600;7.558;2022-11-15T20:35:42;13.30;99.90
18948;DHT22;9607;51.600;7.558;2022-11-15T20:38:10;13.20;99.90
18948;DHT22;9607;51.600;7.558;2022-11-15T20:40:38;13.30;99.90